createdAt,value
2018-11-06T00:07:02.041Z,26.00
2018-11-06T00:17:06.551Z,24.17
2018-11-06T00:27:11.157Z,24.93
2018-11-06T00:37:15.708Z,24.43
2018-11-06T00:47:20.383Z,25.23
2018-11-06T00:57:25.158Z,23.83
2018-11-06T01:07:29.620Z,23.53
2018-11-06T01:17:34.291Z,25.10
2018-11-06T01:27:39.057Z,24.00
2018-11-06T01:37:44.449Z,23.60
2018-11-06T01:47:48.901Z,24.87
2018-11-06T01:57:53.720Z,23.93
2018-11-06T02:07:58.302Z,25.03
2018-11-06T02:18:02.898Z,25.53
2018-11-06T02:28:07.215Z,24.67
2018-11-06T02:38:11.908Z,23.87
2018-11-06T02:48:16.578Z,23.37
2018-11-06T02:58:20.991Z,23.17
2018-11-06T03:08:25.518Z,23.43
2018-11-06T03:18:30.110Z,25.03
2018-11-06T03:28:34.639Z,24.50
2018-11-06T03:38:39.230Z,24.87
2018-11-06T03:48:43.819Z,24.37
2018-11-06T03:58:48.172Z,24.27
2018-11-06T04:08:52.732Z,23.10
2018-11-06T04:18:57.353Z,25.00
2018-11-06T04:29:01.895Z,24.60
2018-11-06T04:39:08.650Z,23.37
2018-11-06T04:49:13.196Z,25.40
2018-11-06T04:59:17.754Z,26.00
2018-11-06T05:09:22.323Z,23.03
2018-11-06T05:19:26.906Z,24.03
2018-11-06T05:29:31.584Z,22.93
2018-11-06T05:39:41.397Z,22.57
2018-11-06T05:49:45.966Z,24.10
2018-11-06T05:59:50.446Z,20.40
2018-11-06T06:09:54.719Z,22.93
2018-11-06T06:19:59.263Z,21.87
2018-11-06T06:30:04.198Z,21.43
2018-11-06T06:40:12.001Z,23.13
2018-11-06T06:50:18.606Z,21.37
2018-11-06T07:00:23.589Z,21.33
2018-11-06T07:10:28.202Z,22.53
2018-11-06T07:20:35.810Z,21.67
2018-11-06T07:30:40.735Z,21.50
2018-11-06T07:40:45.385Z,20.47
2018-11-06T07:50:49.956Z,20.80
2018-11-06T08:00:54.431Z,20.40
2018-11-06T08:11:02.812Z,19.80
2018-11-06T08:21:07.422Z,20.23
2018-11-06T08:31:12.609Z,20.00
2018-11-06T08:41:17.061Z,18.63
2018-11-06T08:51:21.810Z,18.53
2018-11-06T09:01:26.370Z,20.23
2018-11-06T09:11:31.250Z,18.07
2018-11-06T09:21:35.860Z,20.17
2018-11-06T09:31:40.478Z,18.80
2018-11-06T09:41:45.326Z,19.60
2018-11-06T09:51:50.188Z,19.00
2018-11-06T10:01:54.837Z,18.30
2018-11-06T10:11:59.772Z,18.27
2018-11-06T10:22:04.485Z,17.83
2018-11-06T10:32:09.250Z,17.20
2018-11-06T10:42:18.042Z,15.87
2018-11-06T10:52:22.605Z,15.63
2018-11-06T11:02:32.267Z,14.30
2018-11-06T11:12:36.847Z,16.07
2018-11-06T11:22:41.488Z,14.07
2018-11-06T11:32:47.116Z,15.83
2018-11-06T11:42:51.469Z,13.67
2018-11-06T11:52:55.976Z,13.37
2018-11-06T12:03:00.464Z,14.07
2018-11-06T12:13:05.606Z,14.23
2018-11-06T12:23:10.325Z,14.27
2018-11-06T12:33:15.011Z,14.40
2018-11-06T12:43:19.658Z,16.37
2018-11-06T12:53:24.282Z,16.10
2018-11-06T13:03:29.087Z,15.50
2018-11-06T13:13:33.675Z,14.70
2018-11-06T13:23:38.085Z,15.20
2018-11-06T13:33:42.858Z,14.03
2018-11-06T13:43:47.712Z,13.47
2018-11-06T13:53:52.097Z,13.87
2018-11-06T14:03:56.923Z,13.13
2018-11-06T14:14:01.678Z,12.13
2018-11-06T14:24:06.138Z,12.93
2018-11-06T14:34:10.907Z,14.07
2018-11-06T14:44:15.497Z,14.23
2018-11-06T14:54:20.051Z,14.60
2018-11-06T15:04:24.816Z,13.57
2018-11-06T15:14:29.595Z,13.47
2018-11-06T15:24:34.247Z,14.67
2018-11-06T15:34:38.933Z,15.87
2018-11-06T15:44:43.677Z,18.17
2018-11-06T15:54:48.208Z,18.50
2018-11-06T16:04:52.652Z,17.77
2018-11-06T16:14:57.270Z,17.93
2018-11-06T16:25:01.938Z,17.67
2018-11-06T16:35:07.823Z,18.20
2018-11-06T16:45:14.666Z,20.57
2018-11-06T16:55:19.902Z,21.77
2018-11-06T17:05:24.494Z,22.03
2018-11-06T17:15:29.246Z,24.30
2018-11-06T17:25:34.030Z,23.40
2018-11-06T17:35:38.770Z,25.47
2018-11-06T17:45:43.378Z,25.00
2018-11-06T17:55:48.136Z,25.47
2018-11-06T18:05:52.807Z,26.17
2018-11-06T18:15:57.334Z,26.53
2018-11-06T18:26:02.155Z,27.20
2018-11-06T18:36:07.910Z,27.43
2018-11-06T18:46:12.957Z,27.70
2018-11-06T18:56:17.633Z,27.73
2018-11-06T19:06:22.378Z,30.13
2018-11-06T19:16:27.082Z,30.00
2018-11-06T19:26:31.967Z,30.87
2018-11-06T19:36:36.728Z,30.57
2018-11-06T19:46:44.873Z,28.60
2018-11-06T19:56:49.572Z,31.63
2018-11-06T20:06:54.443Z,31.20
2018-11-06T20:16:59.007Z,36.30
2018-11-06T20:27:03.571Z,35.00
2018-11-06T20:37:08.139Z,33.87
2018-11-06T20:47:12.919Z,36.67
2018-11-06T20:57:17.568Z,36.43
2018-11-06T21:07:22.166Z,37.20
2018-11-06T21:17:26.987Z,35.33
2018-11-06T21:27:31.714Z,38.47
2018-11-06T21:37:40.037Z,39.90
2018-11-06T21:47:45.414Z,41.63
2018-11-06T21:57:50.678Z,40.23
2018-11-06T22:07:55.296Z,39.03
2018-11-06T22:18:00.120Z,38.83
2018-11-06T22:28:05.150Z,42.47
2018-11-06T22:38:13.757Z,41.97
2018-11-06T22:48:18.711Z,43.73
2018-11-06T22:58:23.439Z,38.73
2018-11-06T23:08:29.087Z,42.73
2018-11-06T23:18:33.802Z,41.87
2018-11-06T23:28:38.387Z,41.63
2018-11-06T23:38:43.948Z,42.30
2018-11-06T23:48:48.779Z,43.63
2018-11-06T23:58:53.557Z,43.03
